Abrams, Wisconsin
Current Conditions -  °F | °C
As of 7:55 AM on Wednesday 26 Nov 2014 (Local Time) from KOCQ Reporting Station
Overcast Overcast  
Wind Chill: -11°   Ceiling: 1600
Heat Index: -11°   Visibility: 10mi
Dew Point: -11°   Wind: 0mph
Humidity: 95%   Direction: NA
Pressure: 30.18"   Gusts: NA
Location:  44.78°N, 88.06°W
Report Text: KOCQ 261355Z AUTO 00000KT 10SM OVC016 M11/M11 A3018 RMK AO1 T11061112
Loading
Personal Weather Stations






























Interactive Weather Map New forecast layout! Learn more

10-Day Weather Forecast

Advertisements
Track Severe Weather on mobile